createdAt,value
2023-02-09T00:01:40.932Z,1.23
2023-02-09T00:06:42.818Z,1.24
2023-02-09T00:12:03.133Z,1.29
2023-02-09T00:17:05.913Z,1.35
2023-02-09T00:22:07.744Z,1.34
2023-02-09T00:27:09.689Z,1.25
2023-02-09T00:32:11.685Z,0.89
2023-02-09T00:37:15.146Z,0.57
2023-02-09T00:42:16.980Z,0.62
2023-02-09T00:47:18.867Z,0.65
2023-02-09T00:52:20.997Z,0.58
2023-02-09T00:57:22.834Z,0.30
2023-02-09T01:02:24.807Z,-0.09
2023-02-09T01:07:26.932Z,-0.34
2023-02-09T01:12:29.165Z,-0.55
2023-02-09T01:17:30.999Z,-0.54
2023-02-09T01:22:32.939Z,-0.52
2023-02-09T01:27:34.965Z,-0.58
2023-02-09T01:32:37.437Z,-0.74
2023-02-09T01:37:39.360Z,-0.90
2023-02-09T01:42:42.465Z,-1.00
2023-02-09T01:47:50.815Z,-1.05
2023-02-09T01:52:53.851Z,-1.13
2023-02-09T01:58:03.388Z,-1.26
2023-02-09T02:03:09.626Z,-1.41
2023-02-09T02:08:19.265Z,-1.35
2023-02-09T02:13:21.377Z,-1.40
2023-02-09T02:18:27.981Z,-1.51
2023-02-09T02:23:43.256Z,-1.74
2023-02-09T02:28:54.339Z,-1.97
2023-02-09T02:34:47.440Z,-2.09
2023-02-09T02:40:13.248Z,-2.12
2023-02-09T02:45:33.490Z,-2.18
2023-02-09T02:50:40.515Z,-2.19
2023-02-09T02:55:45.876Z,-2.17
2023-02-09T03:00:52.035Z,-2.15
2023-02-09T03:05:54.172Z,-2.18
2023-02-09T03:10:56.890Z,-2.19
2023-02-09T03:16:37.325Z,-2.18
2023-02-09T03:21:45.834Z,-2.21
2023-02-09T03:27:21.907Z,-2.25
2023-02-09T03:32:24.497Z,-2.13
2023-02-09T03:37:26.395Z,-2.05
2023-02-09T03:42:28.328Z,-2.08
2023-02-09T03:47:30.907Z,-2.03
2023-02-09T03:52:32.956Z,-2.03
2023-02-09T03:57:35.350Z,-2.06
2023-02-09T04:02:37.296Z,-2.08
2023-02-09T04:07:39.157Z,-2.14
2023-02-09T04:12:40.971Z,-2.07
2023-02-09T04:17:42.824Z,-2.20
2023-02-09T04:22:44.625Z,-2.31
2023-02-09T04:27:46.413Z,-2.29
2023-02-09T04:32:48.228Z,-2.25
2023-02-09T04:37:50.048Z,-2.24
2023-02-09T04:42:51.835Z,-2.30
2023-02-09T04:47:53.707Z,-2.39
2023-02-09T04:52:55.502Z,-2.42
2023-02-09T04:58:17.115Z,-2.37
2023-02-09T05:03:19.113Z,-2.32
2023-02-09T05:08:20.938Z,-2.41
2023-02-09T05:13:24.291Z,-2.45
2023-02-09T05:18:26.375Z,-2.46
2023-02-09T05:23:28.209Z,-2.45
2023-02-09T05:28:30.222Z,-2.51
2023-02-09T05:33:32.095Z,-2.54
2023-02-09T05:38:33.942Z,-2.54
2023-02-09T05:43:36.925Z,-2.47
2023-02-09T05:48:38.748Z,-2.37
2023-02-09T05:53:40.553Z,-2.37
2023-02-09T05:58:42.334Z,-2.49
2023-02-09T06:03:44.135Z,-2.49
2023-02-09T06:08:45.938Z,-2.46
2023-02-09T06:13:47.744Z,-2.48
2023-02-09T06:18:49.576Z,-2.45
2023-02-09T06:23:51.454Z,-2.42
2023-02-09T06:28:53.266Z,-2.44
2023-02-09T06:33:55.126Z,-2.38
2023-02-09T06:38:56.948Z,-2.34
2023-02-09T06:43:58.782Z,-2.33
2023-02-09T06:49:00.772Z,-2.27
2023-02-09T06:54:02.789Z,-2.15
2023-02-09T06:59:04.616Z,-2.15
2023-02-09T07:04:06.519Z,-2.11
2023-02-09T07:09:08.638Z,-1.98
2023-02-09T07:14:10.504Z,-1.86
2023-02-09T07:19:12.422Z,-1.69
2023-02-09T07:24:14.498Z,-1.49
2023-02-09T07:29:16.698Z,-1.34
2023-02-09T07:34:18.582Z,-1.17
2023-02-09T07:39:20.510Z,-0.94
2023-02-09T07:44:22.750Z,-0.73
2023-02-09T07:49:24.584Z,-0.54
2023-02-09T07:54:26.412Z,-0.43
2023-02-09T07:59:28.240Z,-0.26
2023-02-09T08:04:30.194Z,0.05
2023-02-09T08:09:32.049Z,0.38
2023-02-09T08:14:48.546Z,0.68
2023-02-09T08:19:56.575Z,0.91
2023-02-09T08:25:02.300Z,1.21
2023-02-09T08:30:04.612Z,1.61
2023-02-09T08:35:06.853Z,1.92
2023-02-09T08:40:09.465Z,2.28
2023-02-09T08:45:11.645Z,2.58
2023-02-09T08:50:13.549Z,2.65
2023-02-09T08:55:15.443Z,2.75
2023-02-09T09:00:17.663Z,2.97
2023-02-09T09:05:19.497Z,3.31
2023-02-09T09:10:21.266Z,3.54
2023-02-09T09:15:23.093Z,3.47
2023-02-09T09:20:24.834Z,3.78
2023-02-09T09:25:26.662Z,4.07
2023-02-09T09:30:28.493Z,4.23
2023-02-09T09:35:31.685Z,4.46
2023-02-09T09:40:37.705Z,4.57
2023-02-09T09:45:39.940Z,4.53
2023-02-09T09:50:43.589Z,4.52
2023-02-09T09:55:46.659Z,4.82
2023-02-09T10:00:50.222Z,4.88
2023-02-09T10:06:13.952Z,4.82
2023-02-09T10:11:23.212Z,4.95
2023-02-09T10:16:26.788Z,4.91
2023-02-09T10:21:32.022Z,5.09
2023-02-09T10:26:38.219Z,5.28
2023-02-09T10:31:55.066Z,5.49
2023-02-09T10:37:27.987Z,5.76
2023-02-09T10:42:33.000Z,5.99
2023-02-09T10:47:35.012Z,6.07
2023-02-09T10:52:42.244Z,6.17
2023-02-09T10:57:44.115Z,6.26
2023-02-09T11:02:52.499Z,6.22
2023-02-09T11:08:09.073Z,6.30
2023-02-09T11:13:22.156Z,6.31
2023-02-09T11:18:28.951Z,6.41
2023-02-09T11:23:49.050Z,6.57
2023-02-09T11:29:14.481Z,6.83
2023-02-09T11:34:37.937Z,7.02
2023-02-09T11:40:13.444Z,7.27
2023-02-09T11:45:21.030Z,7.27
2023-02-09T11:50:41.086Z,7.31
2023-02-09T11:55:52.262Z,7.38
2023-02-09T12:01:14.609Z,7.43
2023-02-09T12:06:23.051Z,7.48
2023-02-09T12:11:39.883Z,7.48
2023-02-09T12:16:50.116Z,7.48
2023-02-09T12:21:52.039Z,7.50
2023-02-09T12:26:57.578Z,7.61
2023-02-09T12:32:08.105Z,7.74
2023-02-09T12:37:13.222Z,7.87
2023-02-09T12:42:15.039Z,8.05
2023-02-09T12:47:54.444Z,8.10
2023-02-09T12:53:24.192Z,8.28
2023-02-09T12:58:54.207Z,8.51
2023-02-09T13:04:03.684Z,8.49
2023-02-09T13:09:13.574Z,8.57
2023-02-09T13:14:16.454Z,8.88
2023-02-09T13:19:57.036Z,9.22
2023-02-09T13:25:08.673Z,9.87
2023-02-09T13:30:31.866Z,12.07
2023-02-09T13:35:48.178Z,14.35
2023-02-09T13:40:50.838Z,16.37
2023-02-09T13:45:57.526Z,18.05
2023-02-09T13:51:03.125Z,18.87
2023-02-09T13:56:11.940Z,19.72
2023-02-09T14:01:17.086Z,20.60
2023-02-09T14:06:36.909Z,21.67
2023-02-09T14:11:44.194Z,22.01
2023-02-09T14:16:53.459Z,22.10
2023-02-09T14:21:55.804Z,22.40
2023-02-09T14:27:04.836Z,21.92
2023-02-09T14:32:35.416Z,21.34
2023-02-09T14:37:37.310Z,18.00
2023-02-09T14:43:10.763Z,14.89
2023-02-09T14:48:27.559Z,12.84
2023-02-09T14:53:31.952Z,11.56
2023-02-09T14:58:34.104Z,10.70
2023-02-09T15:03:35.936Z,9.84
2023-02-09T15:08:39.259Z,9.12
2023-02-09T15:13:41.071Z,8.57
2023-02-09T15:18:42.874Z,7.62
2023-02-09T15:23:44.685Z,7.34
2023-02-09T15:28:46.593Z,7.15
2023-02-09T15:33:48.430Z,6.77
2023-02-09T15:38:50.678Z,6.27
2023-02-09T15:44:11.025Z,6.06
2023-02-09T15:49:13.110Z,5.82
2023-02-09T15:54:19.466Z,5.71
2023-02-09T15:59:23.441Z,5.58
2023-02-09T16:04:25.465Z,5.80
2023-02-09T16:09:29.459Z,5.97
2023-02-09T16:14:31.807Z,5.99
2023-02-09T16:19:33.908Z,5.90
2023-02-09T16:24:44.262Z,5.52
2023-02-09T16:29:46.122Z,5.03
2023-02-09T16:34:48.513Z,4.96
2023-02-09T16:39:50.531Z,5.20
2023-02-09T16:44:53.139Z,4.90
2023-02-09T16:49:57.806Z,4.88
2023-02-09T16:55:01.525Z,4.92
2023-02-09T17:00:03.961Z,4.75
2023-02-09T17:05:30.597Z,4.64
2023-02-09T17:10:34.902Z,4.60
2023-02-09T17:15:49.074Z,4.62
2023-02-09T17:20:55.231Z,4.61
2023-02-09T17:25:57.573Z,4.21
2023-02-09T17:31:02.016Z,4.04
2023-02-09T17:36:25.104Z,3.82
2023-02-09T17:41:37.273Z,3.59
2023-02-09T17:46:39.125Z,3.72
2023-02-09T17:51:43.530Z,3.67
2023-02-09T17:56:45.838Z,3.72
2023-02-09T18:01:55.194Z,3.58
2023-02-09T18:06:58.368Z,3.59
2023-02-09T18:12:03.042Z,3.64
2023-02-09T18:17:05.043Z,3.38
2023-02-09T18:22:07.014Z,3.31
2023-02-09T18:27:14.805Z,3.46
2023-02-09T18:32:17.400Z,3.49
2023-02-09T18:37:19.242Z,3.42
2023-02-09T18:42:21.081Z,3.36
2023-02-09T18:47:23.573Z,3.08
2023-02-09T18:52:27.071Z,3.05
2023-02-09T18:57:28.921Z,3.11
2023-02-09T19:02:30.836Z,3.08
2023-02-09T19:07:34.109Z,2.89
2023-02-09T19:12:36.819Z,2.80
2023-02-09T19:17:40.498Z,2.79
2023-02-09T19:22:42.461Z,2.77
2023-02-09T19:27:44.571Z,2.79
2023-02-09T19:32:46.399Z,2.82
2023-02-09T19:37:55.686Z,2.93
2023-02-09T19:42:57.538Z,3.02
2023-02-09T19:47:59.335Z,3.12
2023-02-09T19:53:02.893Z,3.19
2023-02-09T19:58:04.759Z,3.22
2023-02-09T20:03:06.689Z,3.26
2023-02-09T20:08:09.593Z,3.31
2023-02-09T20:13:15.077Z,3.30
2023-02-09T20:18:17.758Z,3.12
2023-02-09T20:23:20.032Z,3.10
2023-02-09T20:28:21.928Z,3.05
2023-02-09T20:33:24.019Z,3.16
2023-02-09T20:38:25.841Z,3.23
2023-02-09T20:43:46.637Z,3.26
2023-02-09T20:48:49.000Z,3.28
2023-02-09T20:53:50.802Z,3.23
2023-02-09T20:58:52.693Z,3.19
2023-02-09T21:03:56.718Z,3.11
2023-02-09T21:08:58.476Z,3.02
2023-02-09T21:14:02.991Z,2.99
2023-02-09T21:19:04.892Z,2.98
2023-02-09T21:24:06.762Z,2.95
2023-02-09T21:29:09.089Z,2.88
2023-02-09T21:34:15.438Z,2.91
2023-02-09T21:39:17.269Z,2.82
2023-02-09T21:44:19.113Z,2.70
2023-02-09T21:49:21.254Z,2.67
2023-02-09T21:54:25.802Z,2.64
2023-02-09T21:59:29.514Z,2.65
2023-02-09T22:04:32.014Z,2.76
2023-02-09T22:09:34.058Z,2.78
2023-02-09T22:14:35.966Z,2.76
2023-02-09T22:19:37.924Z,2.76
2023-02-09T22:24:39.767Z,2.76
2023-02-09T22:29:41.634Z,2.69
2023-02-09T22:34:43.442Z,2.60
2023-02-09T22:39:45.275Z,2.40
2023-02-09T22:44:48.131Z,2.36
2023-02-09T22:49:49.939Z,2.23
2023-02-09T22:54:52.523Z,2.10
2023-02-09T22:59:54.347Z,2.04
2023-02-09T23:04:56.141Z,2.00
2023-02-09T23:09:57.947Z,2.04
2023-02-09T23:14:59.824Z,2.06
2023-02-09T23:20:01.661Z,2.04
2023-02-09T23:25:03.486Z,2.00
2023-02-09T23:30:05.659Z,1.98
2023-02-09T23:35:08.074Z,1.92
2023-02-09T23:40:10.604Z,1.87
2023-02-09T23:45:12.438Z,1.85
2023-02-09T23:50:14.337Z,1.81
2023-02-09T23:55:16.359Z,1.79
